Time;durP1;ratioP1;P1;durP2;ratioP2;P2;SDS_P1;SDS_P2;PMS_P1;PMS_P2;Temp;Humidity;BMP_temperature;BMP_pressure;BME280_temperature;BME280_humidity;BME280_pressure;Samples;Min_cycle;Max_cycle;Signal;HPM_P1;HPM_P2
2022/07/27 00:01:15;;;;;;;;;3.50;3.50;;;;;19.69;53.11;101603.19;6278064;22;45375;-81
2022/07/27 00:03:43;;;;;;;;;2.50;2.50;;;;;19.58;52.62;101586.56;6278746;22;45272;-81
2022/07/27 00:06:08;;;;;;;;;3.00;2.50;;;;;19.73;53.28;101612.03;6278199;22;45249;-81
2022/07/27 00:08:33;;;;;;;;;4.50;4.25;;;;;19.63;53.01;101590.00;6250277;22;45480;-81
2022/07/27 00:10:59;;;;;;;;;3.25;3.25;;;;;19.61;53.22;101600.72;6276530;22;47397;-81
2022/07/27 00:13:25;;;;;;;;;2.33;1.67;;;;;19.66;53.57;101608.63;6250584;22;45268;-81
2022/07/27 00:15:51;;;;;;;;;2.75;2.00;;;;;19.50;53.21;101581.44;6250695;22;45355;-81
2022/07/27 00:18:16;;;;;;;;;3.00;3.00;;;;;19.25;53.62;101548.31;6278247;22;45422;-81
2022/07/27 00:20:41;;;;;;;;;3.50;2.75;;;;;19.53;53.58;101605.38;6250482;22;46817;-81
2022/07/27 00:23:07;;;;;;;;;2.33;2.33;;;;;19.29;54.18;101572.19;6250507;22;45551;-81
2022/07/27 00:25:34;;;;;;;;;2.00;2.00;;;;;19.38;53.98;101581.78;6278372;22;45289;-80
2022/07/27 00:27:59;;;;;;;;;4.75;4.00;;;;;19.37;54.33;101578.22;6250521;22;45469;-81
2022/07/27 00:30:25;;;;;;;;;3.67;3.67;;;;;19.35;54.13;101574.72;6277836;22;45383;-81
2022/07/27 00:32:51;;;;;;;;;3.00;3.00;;;;;19.51;54.14;101601.00;6278259;22;45220;-81
2022/07/27 00:35:17;;;;;;;;;2.00;1.25;;;;;19.46;54.30;101598.47;6250448;22;45290;-81
2022/07/27 00:37:43;;;;;;;;;3.00;2.50;;;;;19.33;54.39;101565.88;6250206;22;46255;-81
2022/07/27 00:40:09;;;;;;;;;1.50;1.50;;;;;19.42;54.42;101579.91;6277956;22;46021;-81
2022/07/27 00:42:35;;;;;;;;;5.75;4.00;;;;;19.26;54.91;101550.06;6278055;22;45245;-81
2022/07/27 00:45:01;;;;;;;;;5.25;4.50;;;;;19.49;54.53;101595.72;6249852;22;45404;-81
2022/07/27 00:47:26;;;;;;;;;4.00;3.00;;;;;19.36;54.63;101571.13;6250587;22;45426;-82
2022/07/27 00:49:52;;;;;;;;;2.50;2.50;;;;;19.37;54.77;101574.66;6279098;22;45502;-81
2022/07/27 00:52:20;;;;;;;;;5.00;3.50;;;;;19.22;54.73;101549.28;6277290;22;45361;-81
2022/07/27 00:54:46;;;;;;;;;3.00;3.00;;;;;19.45;54.35;101596.69;6251648;22;45223;-81
2022/07/27 00:57:14;;;;;;;;;5.25;5.25;;;;;19.34;54.93;101582.78;6279634;22;45338;-81
2022/07/27 00:59:40;;;;;;;;;3.00;3.00;;;;;19.23;54.80;101566.16;6279046;22;45099;-81
2022/07/27 01:02:07;;;;;;;;;4.00;4.00;;;;;19.12;54.87;101553.97;6251060;22;45904;-81
2022/07/27 01:04:33;;;;;;;;;3.25;2.50;;;;;19.09;54.67;101550.50;6279271;22;45292;-81
2022/07/27 01:07:03;;;;;;;;;3.50;3.50;;;;;19.17;55.05;101572.53;6279294;22;45315;-81
2022/07/27 01:12:18;;;;;;;;;5.00;4.00;;;;;19.03;55.14;101566.66;6279247;22;45264;-81
2022/07/27 01:14:44;;;;;;;;;3.00;3.00;;;;;18.92;55.59;101541.16;6251728;22;45313;-81
2022/07/27 01:17:09;;;;;;;;;4.75;4.00;;;;;18.86;55.41;101543.09;6279303;22;45243;-81
2022/07/27 01:19:35;;;;;;;;;4.75;3.75;;;;;19.11;55.28;101588.69;6279232;22;45366;-81
2022/07/27 01:22:02;;;;;;;;;3.50;3.00;;;;;18.89;55.84;101559.00;6279408;22;45175;-81
2022/07/27 01:24:27;;;;;;;;;6.00;4.75;;;;;18.89;55.73;101554.56;6279285;22;45138;-82
2022/07/27 01:26:53;;;;;;;;;4.25;3.50;;;;;19.02;55.43;101583.59;6279149;22;45095;-82
2022/07/27 01:29:18;;;;;;;;;4.00;2.75;;;;;18.87;55.67;101563.50;6278469;22;46394;-82
2022/07/27 01:31:43;;;;;;;;;4.00;3.00;;;;;18.89;56.00;101559.00;6276787;22;45230;-82
2022/07/27 01:34:09;;;;;;;;;4.25;2.50;;;;;18.79;56.06;101542.38;6279446;22;45240;-82
2022/07/27 01:36:34;;;;;;;;;3.25;3.25;;;;;18.58;55.84;101517.06;6279168;22;45420;-81
2022/07/27 01:39:00;;;;;;;;;5.75;4.75;;;;;18.88;55.90;101576.81;6251575;22;47852;-82
2022/07/27 01:41:25;;;;;;;;;4.75;3.50;;;;;18.86;56.11;101570.63;6251313;22;45328;-82
2022/07/27 01:43:51;;;;;;;;;3.00;3.00;;;;;18.50;56.07;101522.59;6251516;22;45271;-82
2022/07/27 01:46:16;;;;;;;;;5.25;5.00;;;;;18.49;56.51;101525.28;6278978;22;45360;-81
2022/07/27 01:48:42;;;;;;;;;5.50;5.00;;;;;18.61;56.74;101546.34;6276952;22;45301;-81
2022/07/27 01:51:07;;;;;;;;;2.75;2.75;;;;;18.52;56.82;101536.78;6277484;22;45355;-82
2022/07/27 01:53:32;;;;;;;;;4.50;4.00;;;;;18.72;56.87;101570.94;6249718;22;45367;-81
2022/07/27 01:56:01;;;;;;;;;3.00;3.00;;;;;18.70;56.96;101570.09;6277584;22;45339;-81
2022/07/27 01:58:26;;;;;;;;;3.00;3.00;;;;;18.62;57.05;101548.06;6275479;22;48552;-81
2022/07/27 02:00:51;;;;;;;;;7.00;5.00;;;;;18.49;56.87;101522.63;6249359;22;45689;-81
2022/07/27 02:03:17;;;;;;;;;4.00;3.00;;;;;18.44;56.81;101517.41;6250122;22;45173;-81
2022/07/27 02:05:42;;;;;;;;;3.25;3.25;;;;;18.68;57.40;101563.97;6249368;22;45362;-81
2022/07/27 02:08:08;;;;;;;;;3.00;3.00;;;;;18.51;57.42;101528.81;6249260;22;47783;-81
2022/07/27 02:10:35;;;;;;;;;6.00;4.50;;;;;18.29;57.38;101499.13;6277467;22;45214;-81
2022/07/27 02:13:01;;;;;;;;;4.25;3.75;;;;;18.46;57.43;101523.56;6249709;22;45364;-81
2022/07/27 02:15:28;;;;;;;;;4.50;4.00;;;;;18.65;57.54;101553.34;6276823;22;45285;-81
2022/07/27 02:17:54;;;;;;;;;3.00;3.00;;;;;18.58;57.68;101541.09;6249399;22;48200;-81
2022/07/27 02:20:23;;;;;;;;;6.00;3.75;;;;;18.46;57.43;101538.69;6249141;22;45320;-81
2022/07/27 02:22:50;;;;;;;;;3.50;2.75;;;;;18.60;57.42;101573.03;6276852;22;45258;-81
2022/07/27 02:25:18;;;;;;;;;6.00;5.00;;;;;18.54;57.87;101573.19;6249128;22;45797;-81
2022/07/27 02:27:44;;;;;;;;;3.50;3.50;;;;;18.48;57.94;101560.88;6249603;22;46978;-81
2022/07/27 02:30:11;;;;;;;;;5.00;4.00;;;;;18.06;57.96;101505.84;6276514;22;45204;-81
2022/07/27 02:32:36;;;;;;;;;3.00;3.00;;;;;18.19;57.81;101534.88;6275096;22;45198;-81
2022/07/27 02:35:02;;;;;;;;;4.75;4.00;;;;;18.33;58.26;101564.75;6276142;22;45157;-80
2022/07/27 02:37:28;;;;;;;;;5.50;3.75;;;;;18.25;58.58;101556.94;6276520;22;45498;-81
2022/07/27 02:39:53;;;;;;;;;4.00;4.00;;;;;18.28;58.51;101561.31;6276866;22;45125;-81
2022/07/27 02:42:19;;;;;;;;;5.75;4.00;;;;;18.21;58.19;101549.06;6248848;22;45376;-81
2022/07/27 02:44:45;;;;;;;;;4.50;4.50;;;;;18.12;58.46;101536.78;6247749;22;45478;-82
2022/07/27 02:47:10;;;;;;;;;5.00;4.00;;;;;18.19;58.36;101569.53;6220939;22;1279392;-81
2022/07/27 02:49:36;;;;;;;;;7.00;5.00;;;;;18.28;58.35;101577.31;6276840;22;45413;-81
2022/07/27 02:52:03;;;;;;;;;6.75;6.00;;;;;18.17;58.28;101569.56;6276908;22;45355;-81
2022/07/27 02:54:31;;;;;;;;;4.75;4.75;;;;;18.07;58.65;101550.25;6278642;22;45367;-81
2022/07/27 02:56:58;;;;;;;;;5.50;5.50;;;;;17.83;58.65;101505.50;6278466;22;45636;-81
2022/07/27 02:59:23;;;;;;;;;6.00;5.50;;;;;18.05;58.77;101551.19;6275820;22;45228;-81
2022/07/27 03:01:49;;;;;;;;;7.00;7.00;;;;;18.12;58.79;101563.44;6278695;22;45216;-81
2022/07/27 03:04:16;;;;;;;;;4.00;4.00;;;;;17.96;58.68;101530.06;6276913;22;45219;-81
2022/07/27 03:06:42;;;;;;;;;5.25;4.00;;;;;18.04;59.03;101560.06;6250406;22;49834;-81
2022/07/27 03:09:08;;;;;;;;;5.00;4.00;;;;;17.99;59.01;101556.63;6276412;22;45829;-81
2022/07/27 03:11:34;;;;;;;;;6.25;5.00;;;;;17.77;59.05;101517.09;6251423;22;45371;-81
2022/07/27 03:13:59;;;;;;;;;5.50;5.00;;;;;17.80;58.88;101518.84;6278771;22;45410;-81
2022/07/27 03:16:24;;;;;;;;;4.50;4.25;;;;;17.89;58.95;101539.09;6278617;22;45465;-81
2022/07/27 03:18:50;;;;;;;;;4.00;3.25;;;;;17.77;59.03;101516.22;6251174;22;45337;-81
2022/07/27 03:21:15;;;;;;;;;4.50;4.50;;;;;18.02;59.13;101564.59;6278767;22;45138;-81
2022/07/27 03:23:41;;;;;;;;;3.00;3.00;;;;;17.74;59.15;101521.63;6276711;22;45881;-81
2022/07/27 03:26:06;;;;;;;;;4.50;4.50;;;;;17.89;59.05;101550.63;6278559;22;45331;-81
2022/07/27 03:28:32;;;;;;;;;5.25;3.75;;;;;17.76;59.27;101527.78;6250973;22;45251;-81
2022/07/27 03:30:58;;;;;;;;;4.00;4.00;;;;;17.88;59.53;101553.31;6278608;22;45316;-81
2022/07/27 03:33:23;;;;;;;;;6.00;4.00;;;;;17.83;59.14;101548.09;6250916;22;45430;-81
2022/07/27 03:35:49;;;;;;;;;6.75;4.75;;;;;17.90;59.37;101563.03;6250439;22;47135;-81
2022/07/27 03:38:14;;;;;;;;;4.75;4.75;;;;;17.54;59.45;101506.06;6278314;22;45197;-81
2022/07/27 03:40:40;;;;;;;;;3.75;3.75;;;;;17.57;59.39;101506.00;6250976;22;45228;-81
2022/07/27 03:43:06;;;;;;;;;4.75;4.75;;;;;17.58;59.40;101510.41;6250722;22;45481;-81
2022/07/27 03:45:31;;;;;;;;;5.00;4.75;;;;;17.83;59.62;101556.09;6249681;22;47163;-81
2022/07/27 03:47:57;;;;;;;;;4.00;4.00;;;;;17.56;59.75;101517.53;6250422;22;45564;-81
2022/07/27 03:50:22;;;;;;;;;5.25;5.25;;;;;17.69;59.55;101542.13;6251484;22;45352;-81
2022/07/27 03:52:48;;;;;;;;;9.75;5.00;;;;;17.80;59.69;101559.69;6250208;22;45363;-81
2022/07/27 03:55:13;;;;;;;;;6.25;6.25;;;;;17.48;59.46;101507.06;6250477;22;47317;-81
2022/07/27 03:57:38;;;;;;;;;6.00;5.25;;;;;17.50;59.71;101510.56;6278221;22;45350;-81
2022/07/27 04:00:05;;;;;;;;;7.00;5.75;;;;;17.48;59.74;101509.72;6278290;22;45375;-81
2022/07/27 04:02:31;;;;;;;;;4.50;4.50;;;;;17.80;59.53;101566.78;6278562;22;45557;-81
2022/07/27 04:04:56;;;;;;;;;5.75;5.75;;;;;17.49;59.73;101519.47;6250576;22;48253;-81
2022/07/27 04:07:21;;;;;;;;;6.25;6.25;;;;;17.61;59.57;101537.88;6278946;22;45193;-81
2022/07/27 04:09:50;;;;;;;;;5.00;5.00;;;;;17.52;59.95;101523.84;6251136;22;45222;-81
2022/07/27 04:12:15;;;;;;;;;4.00;4.00;;;;;17.47;59.52;101510.63;6278470;22;45382;-81
2022/07/27 04:14:41;;;;;;;;;5.75;4.50;;;;;17.48;59.67;101515.06;6276110;22;47219;-81
2022/07/27 04:17:06;;;;;;;;;4.00;4.00;;;;;17.56;59.58;101534.41;6278762;22;45362;-81
2022/07/27 04:19:32;;;;;;;;;4.00;4.00;;;;;17.56;59.54;101550.38;6278703;22;45246;-81
2022/07/27 04:21:57;;;;;;;;;4.75;4.75;;;;;17.56;59.46;101550.38;6279174;22;45277;-81
2022/07/27 04:24:22;;;;;;;;;3.00;2.00;;;;;17.51;59.15;101533.63;6251321;22;48266;-81
2022/07/27 04:26:48;;;;;;;;;3.25;3.25;;;;;17.63;59.20;101553.78;6279263;22;45316;-81
2022/07/27 04:29:13;;;;;;;;;2.25;2.25;;;;;17.58;59.11;101551.22;6279893;22;45239;-81
2022/07/27 04:31:39;;;;;;;;;4.00;4.00;;;;;17.53;59.02;101538.91;6251573;22;45502;-81
2022/07/27 04:34:04;;;;;;;;;3.50;3.50;;;;;17.51;58.64;101536.28;6279400;22;45966;-81
2022/07/27 04:36:30;;;;;;;;;4.00;4.00;;;;;17.52;58.45;101518.53;6251632;22;45374;-81
2022/07/27 04:38:55;;;;;;;;;3.25;2.25;;;;;17.43;58.25;101522.25;6251646;22;45340;-81
2022/07/27 04:41:20;;;;;;;;;1.25;1.25;;;;;17.65;57.75;101567.97;6251818;22;45222;-81
2022/07/27 04:43:46;;;;;;;;;4.00;3.00;;;;;17.54;58.40;101560.19;6277017;22;48188;-81
2022/07/27 04:46:12;;;;;;;;;3.00;3.00;;;;;17.51;58.05;101552.25;6251488;22;45217;-81
2022/07/27 04:48:37;;;;;;;;;3.50;2.00;;;;;17.32;57.85;101511.81;6251335;22;45195;-81
2022/07/27 04:51:03;;;;;;;;;2.33;2.33;;;;;17.34;58.00;101515.28;6279280;22;45532;-81
2022/07/27 04:53:28;;;;;;;;;3.50;3.50;;;;;17.35;57.81;101513.53;6279087;22;45807;-81
2022/07/27 04:55:54;;;;;;;;;2.50;2.50;;;;;17.27;57.65;101494.16;6279376;22;45195;-81
2022/07/27 04:58:19;;;;;;;;;2.50;2.50;;;;;17.54;57.64;101524.69;6278553;22;45169;-81
2022/07/27 05:00:44;;;;;;;;;2.75;2.50;;;;;17.52;57.58;101518.53;6280238;22;45106;-81
2022/07/27 05:03:10;;;;;;;;;3.75;3.75;;;;;17.61;57.18;101529.88;6252373;22;46144;-81
2022/07/27 05:05:36;;;;;;;;;5.00;4.00;;;;;17.56;57.30;101526.44;6276951;22;45284;-81
2022/07/27 05:08:01;;;;;;;;;3.67;3.67;;;;;17.53;56.88;101518.47;6251340;22;45355;-81
2022/07/27 05:10:27;;;;;;;;;5.00;3.00;;;;;17.46;57.25;101510.66;6251411;22;45422;-81
2022/07/27 05:12:52;;;;;;;;;5.00;3.33;;;;;17.63;57.11;101541.34;6279005;22;46130;-81
2022/07/27 05:15:18;;;;;;;;;4.33;3.00;;;;;17.80;57.13;101586.34;6277110;22;45373;-81
2022/07/27 05:17:44;;;;;;;;;3.50;3.50;;;;;17.61;56.99;101544.94;6251784;22;45233;-81
2022/07/27 05:20:10;;;;;;;;;3.00;3.00;;;;;17.44;56.46;101529.31;6279339;22;45373;-81
2022/07/27 05:22:36;;;;;;;;;3.75;3.00;;;;;17.73;56.75;101573.13;6251413;22;46984;-81
2022/07/27 05:25:01;;;;;;;;;4.75;4.00;;;;;17.65;56.95;101557.31;6276950;22;45787;-81
2022/07/27 05:27:27;;;;;;;;;4.25;2.50;;;;;17.36;56.71;101496.66;6251734;22;45347;-82
2022/07/27 05:29:52;;;;;;;;;4.00;4.00;;;;;17.51;56.67;101524.72;6251224;22;45264;-81
2022/07/27 05:32:17;;;;;;;;;3.50;2.75;;;;;17.63;56.45;101554.66;6278914;22;46202;-81
2022/07/27 05:34:44;;;;;;;;;4.00;3.00;;;;;17.56;56.65;101538.84;6251493;22;45189;-81
2022/07/27 05:37:13;;;;;;;;;4.50;4.00;;;;;17.28;56.59;101494.13;6279004;22;45297;-82
2022/07/27 05:39:42;;;;;;;;;3.00;3.00;;;;;17.78;56.58;101585.44;6278671;22;45443;-82
2022/07/27 05:42:08;;;;;;;;;4.75;4.00;;;;;17.60;56.24;101540.53;6279093;22;45389;-82
2022/07/27 05:44:34;;;;;;;;;4.00;4.00;;;;;17.87;56.22;101592.41;6250715;22;45185;-81
2022/07/27 05:46:59;;;;;;;;;5.00;4.00;;;;;17.79;56.46;101573.91;6275584;22;45187;-81
2022/07/27 05:49:25;;;;;;;;;4.50;4.50;;;;;17.94;56.60;101593.19;6279045;22;45519;-81
2022/07/27 05:51:50;;;;;;;;;5.00;4.00;;;;;17.88;56.41;101582.63;6251031;22;46968;-81
2022/07/27 05:54:17;;;;;;;;;5.00;5.00;;;;;18.01;56.31;101592.13;6251622;22;45335;-81
2022/07/27 05:56:42;;;;;;;;;4.75;4.75;;;;;17.81;56.01;101557.91;6251619;22;45355;-82
2022/07/27 05:59:07;;;;;;;;;3.75;3.75;;;;;17.76;55.95;101547.31;6277154;22;45471;-82
2022/07/27 06:01:33;;;;;;;;;5.25;4.75;;;;;17.93;56.20;101575.41;6279078;22;46366;-82
2022/07/27 06:03:58;;;;;;;;;4.75;3.00;;;;;17.83;56.05;101554.31;6251257;22;45399;-82
2022/07/27 06:09:08;;;;;;;;;6.25;3.75;;;;;18.06;55.83;101584.91;6278962;22;45358;-81
2022/07/27 06:11:33;;;;;;;;;5.25;3.00;;;;;18.06;55.51;101577.78;6250901;22;48201;-82
2022/07/27 06:13:59;;;;;;;;;3.00;3.00;;;;;17.93;55.96;101557.63;6279189;22;45173;-82
2022/07/27 06:16:24;;;;;;;;;5.00;4.00;;;;;18.13;55.52;101589.19;6251322;22;45253;-82
2022/07/27 06:18:50;;;;;;;;;6.00;4.50;;;;;17.85;55.80;101539.19;6251357;22;45303;-81
2022/07/27 06:21:15;;;;;;;;;4.00;3.00;;;;;18.03;55.59;101574.31;6251081;22;47092;-82
2022/07/27 06:23:41;;;;;;;;;4.00;3.25;;;;;17.97;55.44;101572.66;6279496;22;45255;-81
2022/07/27 06:26:06;;;;;;;;;4.75;4.75;;;;;18.12;55.70;101582.09;6280206;22;45223;-81
2022/07/27 06:28:32;;;;;;;;;3.00;3.00;;;;;18.26;55.94;101593.34;6279067;22;45229;-81
2022/07/27 06:30:58;;;;;;;;;2.67;1.67;;;;;18.32;55.57;101597.66;6250513;22;47077;-82
2022/07/27 06:33:27;;;;;;;;;3.00;3.00;;;;;18.11;55.86;101564.38;6276802;22;45197;-82
2022/07/27 06:35:54;;;;;;;;;5.00;4.00;;;;;18.29;55.68;101590.63;6275940;22;45237;-81
2022/07/27 06:38:20;;;;;;;;;3.75;3.25;;;;;18.29;55.60;101589.75;6250739;22;45351;-82
2022/07/27 06:40:51;;;;;;;;;4.25;4.00;;;;;18.46;55.55;101603.56;6276926;22;45885;-82
2022/07/27 06:43:17;;;;;;;;;3.50;2.50;;;;;18.52;55.13;101614.13;6249888;22;45359;-82
2022/07/27 06:45:43;;;;;;;;;6.00;5.00;;;;;18.48;55.45;101598.22;6276734;22;45304;-81
2022/07/27 06:48:08;;;;;;;;;4.00;2.67;;;;;18.35;54.82;101580.72;6245327;22;45239;-82
2022/07/27 06:50:34;;;;;;;;;4.00;4.00;;;;;18.51;55.06;101596.34;6220640;22;46807;-82
2022/07/27 06:53:02;;;;;;;;;3.75;3.75;;;;;18.48;55.10;101577.75;6220156;22;45370;-81
2022/07/27 06:55:39;;;;;;;;;4.00;4.00;;;;;18.48;54.86;101566.22;6220793;22;45219;-81
2022/07/27 06:58:39;;;;;;;;;3.00;3.00;;;;;18.71;54.82;101601.22;6245450;22;45623;-82
2022/07/27 07:01:15;;;;;;;;;6.75;4.50;;;;;18.81;54.87;101625.03;6247139;22;45374;-82
2022/07/27 07:03:59;;;;;;;;;;;;;;;;;;;;;
2022/07/27 07:06:25;;;;;;;;;19.00;16.50;;;;;18.75;54.39;101577.16;6246230;22;68381;-82
2022/07/27 07:09:28;;;;;;;;;4.00;4.00;;;;;18.84;54.33;101582.25;6247585;22;45499;-81
2022/07/27 07:11:57;;;;;;;;;7.00;3.50;;;;;18.91;54.31;101587.41;6245245;22;47069;-81
2022/07/27 07:14:22;;;;;;;;;4.67;4.67;;;;;19.17;54.31;101609.91;6218748;22;45516;-81
2022/07/27 07:16:48;;;;;;;;;2.50;2.50;;;;;19.18;54.12;101612.53;6247862;22;45226;-82
2022/07/27 07:19:14;;;;;;;;;6.67;4.67;;;;;19.14;53.90;101596.66;6247618;22;45225;-82
2022/07/27 07:21:40;;;;;;;;;5.00;4.00;;;;;19.28;53.74;101613.19;6220200;22;48335;-81
2022/07/27 07:24:05;;;;;;;;;5.00;5.00;;;;;19.29;53.37;101593.56;6245291;22;45114;-81
2022/07/27 07:26:31;;;;;;;;;4.25;4.25;;;;;19.33;53.23;101602.38;6247150;22;45503;-82
2022/07/27 07:29:02;;;;;;;;;5.00;4.00;;;;;19.33;53.57;101597.91;6245042;22;45558;-81
2022/07/27 07:31:28;;;;;;;;;6.00;5.00;;;;;19.48;53.24;101607.28;6218936;22;46991;-81
2022/07/27 07:34:22;;;;;;;;;5.75;4.50;;;;;19.61;53.31;101618.53;6219970;22;45190;-81
2022/07/27 07:36:48;;;;;;;;;4.00;3.33;;;;;19.45;52.84;101580.69;6211156;22;45285;-82
2022/07/27 07:39:13;;;;;;;;;6.00;6.00;;;;;19.64;52.79;101605.09;6247407;22;45134;-81
2022/07/27 07:41:41;;;;;;;;;5.33;3.33;;;;;19.79;52.75;101627.88;6245581;22;48368;-82
2022/07/27 07:44:08;;;;;;;;;4.00;3.33;;;;;19.68;52.78;101598.78;6219937;22;45419;-82
2022/07/27 07:46:35;;;;;;;;;7.00;5.00;;;;;19.78;53.00;101594.03;6219285;22;45270;-81
2022/07/27 07:49:01;;;;;;;;;6.50;5.50;;;;;19.85;52.48;101606.31;6250707;22;45404;-82
2022/07/27 07:51:32;;;;;;;;;5.75;5.50;;;;;19.92;52.53;101609.72;6274814;22;46693;-81
2022/07/27 07:54:01;;;;;;;;;5.67;3.67;;;;;19.92;52.43;101593.69;6250240;22;45296;-81
2022/07/27 07:56:28;;;;;;;;;5.75;5.00;;;;;19.95;52.69;101589.09;6250191;22;45223;-81
2022/07/27 07:58:54;;;;;;;;;4.50;4.50;;;;;20.04;52.19;101590.63;6276053;22;45312;-82
2022/07/27 08:01:19;;;;;;;;;5.00;5.00;;;;;20.02;52.04;101582.66;6277895;22;46159;-81
2022/07/27 08:03:45;;;;;;;;;7.00;6.25;;;;;20.12;51.86;101599.28;6278229;22;45149;-82
2022/07/27 08:06:14;;;;;;;;;9.00;8.75;;;;;20.25;51.76;101614.03;6250669;22;45271;-82
2022/07/27 08:08:39;;;;;;;;;8.00;8.00;;;;;20.13;51.84;101590.38;6274924;22;45636;-81
2022/07/27 08:11:04;;;;;;;;;5.75;5.75;;;;;20.40;51.86;101609.19;6277810;22;45189;-82
2022/07/27 08:13:32;;;;;;;;;5.00;4.75;;;;;20.52;51.86;101608.78;6278130;22;45331;-82
2022/07/27 08:15:58;;;;;;;;;9.25;6.50;;;;;20.55;51.41;101602.50;6278114;22;45106;-81
2022/07/27 08:18:23;;;;;;;;;6.75;6.75;;;;;20.47;51.45;101579.50;6278099;22;45233;-82
2022/07/27 08:20:49;;;;;;;;;6.00;5.00;;;;;20.60;51.39;101582.69;6275789;22;48306;-81
2022/07/27 08:23:16;;;;;;;;;5.75;5.75;;;;;20.73;51.47;101598.34;6275935;22;45621;-82
2022/07/27 08:25:42;;;;;;;;;6.00;5.00;;;;;20.89;50.62;101604.97;6249352;22;45358;-81
2022/07/27 08:28:07;;;;;;;;;7.50;6.75;;;;;20.94;50.66;101600.34;6250384;22;45414;-82
2022/07/27 08:30:35;;;;;;;;;8.00;6.00;;;;;21.02;50.40;101598.28;6275016;22;47205;-82
2022/07/27 08:33:05;;;;;;;;;5.50;5.50;;;;;21.14;50.19;101600.53;6250014;22;45262;-82
2022/07/27 08:35:32;;;;;;;;;6.50;6.00;;;;;21.10;50.07;101587.31;6249987;22;45153;-82
2022/07/27 08:37:59;;;;;;;;;6.00;6.00;;;;;21.31;49.86;101608.00;6249931;22;45359;-82
2022/07/27 08:40:24;;;;;;;;;6.00;6.00;;;;;21.36;49.82;101600.66;6249437;22;48396;-81
2022/07/27 08:42:50;;;;;;;;;9.00;8.25;;;;;21.46;49.75;101592.34;6277623;22;45228;-81
2022/07/27 08:45:17;;;;;;;;;14.00;12.75;;;;;21.59;49.16;101599.88;6277509;22;45417;-82
2022/07/27 08:47:44;;;;;;;;;5.00;5.00;;;;;21.70;49.24;101599.47;6276788;22;45160;-81
2022/07/27 08:50:22;;;;;;;;;6.00;6.00;;;;;21.74;48.93;101603.81;6249651;22;47220;-82
2022/07/27 08:53:17;;;;;;;;;5.00;5.00;;;;;21.83;48.86;101596.38;6277338;22;45403;-82
2022/07/27 08:55:45;;;;;;;;;5.75;5.75;;;;;21.88;48.22;101586.34;6229718;22;45370;-82
2022/07/27 08:58:11;;;;;;;;;12.00;9.25;;;;;21.91;47.70;101573.69;6249359;22;45337;-82
2022/07/27 09:00:42;;;;;;;;;6.75;6.50;;;;;21.96;47.86;101577.06;6273962;22;47012;-82
2022/07/27 09:03:13;;;;;;;;;4.00;4.00;;;;;22.02;47.77;101581.31;6249611;22;45271;-82
2022/07/27 09:05:43;;;;;;;;;5.00;5.00;;;;;22.12;47.59;101587.22;6275328;22;45224;-82
2022/07/27 09:08:14;;;;;;;;;5.00;5.00;;;;;22.23;46.99;101585.91;6250363;22;45395;-82
2022/07/27 09:10:40;;;;;;;;;5.25;5.25;;;;;22.30;47.16;101586.53;6278491;22;46153;-82
2022/07/27 09:13:25;;;;;;;;;6.33;6.33;;;;;22.41;46.78;101588.81;6250930;22;45851;-82
2022/07/27 09:15:56;;;;;;;;;4.67;4.67;;;;;22.58;46.52;101582.75;6278724;22;45229;-82
2022/07/27 09:18:26;;;;;;;;;6.67;5.00;;;;;22.72;46.15;101585.78;6278602;22;45365;-82
2022/07/27 09:21:15;;;;;;;;;4.00;4.00;;;;;22.85;45.93;101584.31;6276426;22;47438;-82
2022/07/27 09:23:54;;;;;;;;;3.33;3.00;;;;;22.94;45.67;101592.94;6251242;22;45363;-82
2022/07/27 09:26:23;;;;;;;;;4.00;4.00;;;;;23.03;45.04;101593.44;6251082;22;45207;-82
2022/07/27 09:29:01;;;;;;;;;3.67;3.67;;;;;23.10;45.13;101592.25;6277019;22;45283;-82
2022/07/27 09:31:26;;;;;;;;;7.00;4.33;;;;;23.18;45.00;101586.56;6250769;22;46991;-82
2022/07/27 09:33:55;;;;;;;;;4.00;4.00;;;;;23.32;44.87;101589.50;6279017;22;45514;-82
2022/07/27 09:36:22;;;;;;;;;5.67;5.67;;;;;23.42;43.87;101589.97;6279162;22;45179;-82
2022/07/27 09:38:55;;;;;;;;;5.75;5.00;;;;;23.49;43.96;101583.38;6278712;22;45463;-82
2022/07/27 09:41:22;;;;;;;;;5.50;4.00;;;;;23.52;43.22;101579.69;6250813;22;47742;-82
2022/07/27 09:43:54;;;;;;;;;5.00;4.00;;;;;23.60;43.03;101587.41;6278232;22;45300;-82
2022/07/27 09:46:34;;;;;;;;;4.67;4.67;;;;;23.58;42.71;101570.50;6275566;22;45242;-82
2022/07/27 09:49:01;;;;;;;;;4.00;4.00;;;;;23.68;43.09;101574.50;6275970;22;45407;-83
2022/07/27 09:51:27;;;;;;;;;5.67;4.33;;;;;23.72;42.75;101584.22;6250541;22;47185;-82
2022/07/27 09:53:53;;;;;;;;;5.00;4.00;;;;;23.81;42.97;101581.09;6276632;22;45172;-82
2022/07/27 09:56:30;;;;;;;;;3.33;2.67;;;;;23.85;41.96;101571.09;6279023;22;45110;-82
2022/07/27 09:58:58;;;;;;;;;5.67;4.33;;;;;24.02;41.61;101575.69;6250935;22;45207;-82
2022/07/27 10:01:26;;;;;;;;;3.67;3.67;;;;;24.08;41.43;101578.94;6250641;22;47380;-83
2022/07/27 10:03:57;;;;;;;;;3.00;3.00;;;;;24.12;42.00;101583.25;6250811;22;45598;-82
2022/07/27 10:06:24;;;;;;;;;3.00;3.00;;;;;24.12;41.19;101563.53;6278534;22;45298;-82
2022/07/27 10:08:51;;;;;;;;;4.67;4.67;;;;;24.24;41.09;101571.00;6250714;22;45366;-82
2022/07/27 10:11:18;;;;;;;;;7.00;7.00;;;;;24.30;41.15;101556.38;6250789;22;47233;-82
2022/07/27 10:13:44;;;;;;;;;9.33;7.67;;;;;24.41;39.95;101571.09;6276262;22;45249;-83
2022/07/27 10:16:30;;;;;;;;;6.00;5.00;;;;;24.54;39.76;101557.03;6278306;22;45230;-83
2022/07/27 10:19:14;;;;;;;;;3.33;2.67;;;;;24.70;39.37;101560.75;6275322;22;45309;-83
2022/07/27 10:21:43;;;;;;;;;4.00;4.00;;;;;24.93;39.45;101570.34;6275877;22;46495;-83
2022/07/27 10:24:12;;;;;;;;;6.00;4.67;;;;;24.99;39.06;101558.38;6250232;22;45390;-83
2022/07/27 10:26:42;;;;;;;;;5.00;3.33;;;;;25.11;38.56;101570.38;6250541;22;45329;-82
2022/07/27 10:29:13;;;;;;;;;4.00;3.00;;;;;25.14;37.94;101568.38;6275321;22;45408;-82
2022/07/27 10:31:57;;;;;;;;;4.00;3.00;;;;;25.17;37.89;101564.69;6278266;22;45442;-83
2022/07/27 10:34:41;;;;;;;;;2.67;2.67;;;;;25.14;37.84;101554.03;6250655;22;45457;-83
2022/07/27 10:37:08;;;;;;;;;3.00;3.00;;;;;25.19;37.71;101569.06;6278052;22;45176;-82
2022/07/27 10:39:41;;;;;;;;;3.00;3.00;;;;;25.15;37.26;101553.97;6250288;22;45585;-82
2022/07/27 10:42:24;;;;;;;;;2.00;2.00;;;;;25.20;37.33;101561.84;6278157;22;45985;-82
2022/07/27 10:45:04;;;;;;;;;3.00;3.00;;;;;25.23;36.16;101558.97;6250062;22;45319;-82
2022/07/27 10:47:33;;;;;;;;;3.67;3.67;;;;;25.23;36.23;101553.59;6250223;22;45237;-82
2022/07/27 10:50:16;;;;;;;;;2.33;2.00;;;;;25.22;37.14;101557.25;6277946;22;45292;-82
2022/07/27 10:52:42;;;;;;;;;3.00;3.00;;;;;25.29;36.44;101547.91;6275773;22;47997;-83
2022/07/27 10:55:27;;;;;;;;;2.67;2.67;;;;;25.30;36.73;101546.94;6277751;22;45263;-83
2022/07/27 10:57:53;;;;;;;;;3.33;3.00;;;;;25.38;35.97;101542.00;6249879;22;45296;-82
2022/07/27 11:00:19;;;;;;;;;2.00;1.67;;;;;25.47;36.02;101535.25;6249705;22;45633;-83
2022/07/27 11:02:45;;;;;;;;;4.00;2.00;;;;;25.56;36.00;101539.28;6275108;22;47012;-82
2022/07/27 11:05:10;;;;;;;;;2.00;2.00;;;;;25.68;36.18;101527.81;6275959;22;45371;-82
2022/07/27 11:07:42;;;;;;;;;2.00;2.00;;;;;25.81;35.77;101528.03;6278049;22;45222;-82
2022/07/27 11:10:08;;;;;;;;;1.67;1.67;;;;;25.88;35.60;101534.88;6278443;22;45362;-82
2022/07/27 11:12:35;;;;;;;;;1.67;1.67;;;;;25.93;34.94;101530.09;6250018;22;47407;-82
2022/07/27 11:15:01;;;;;;;;;2.00;2.00;;;;;26.03;34.73;101531.28;6276266;22;45600;-82
2022/07/27 11:17:28;;;;;;;;;0.67;0.67;;;;;26.12;34.70;101521.81;6278717;22;45219;-82
2022/07/27 11:19:56;;;;;;;;;5.00;4.00;;;;;26.25;34.74;101514.78;6250529;22;45265;-82
2022/07/27 11:22:33;;;;;;;;;3.00;2.00;;;;;26.35;34.58;101517.78;6278088;22;45767;-82
2022/07/27 11:25:00;;;;;;;;;2.00;2.00;;;;;26.40;35.00;101513.00;6276482;22;45303;-82
2022/07/27 11:27:26;;;;;;;;;3.33;3.33;;;;;26.60;34.92;101509.19;6278593;22;45266;-82
2022/07/27 11:29:52;;;;;;;;;3.00;2.67;;;;;26.81;34.48;101504.31;6250037;22;45490;-82
2022/07/27 11:32:18;;;;;;;;;3.67;3.67;;;;;27.01;33.88;101516.66;6278089;22;45284;-82
2022/07/27 11:34:44;;;;;;;;;2.33;2.00;;;;;27.08;33.46;101509.00;6278185;22;45245;-82